Cape Providence — 3EWQ — position and weather

sailwx.info

Track history (hours):
 
Tides and Currents Weather Stations Pressure Air Temp Water Temp Dewpoint Dewpoint Depression Visibility Wind Speed Wind Dir Waves Ship Positions

Cape Providence

Last reported at 2014-Nov-12 09:32 UTC. Time now 2014-Nov-26 07:41 UTC.
Position N 31°21' E 121°40'.
Warning: this ship's position is 13 days out of date.

Length 292 m; draft 9.1 m.

Type: Cargo ship. MMSI: 372773000.

Date/timePositionNaut miles runAvg speedWind from/ knotsBaromVisibWave heightAir tempDewpointWater temp
2014-Nov-12 09:32N 31°21' E 121°40'10 9.9
2014-Nov-12 08:33N 31°25' E 121°30'6 5.6
2014-Nov-12 07:33N 31°29' E 121°26'1211.6
2014-Nov-12 06:33N 31°37' E 121°16'1212.1
2014-Nov-12 05:33N 31°45' E 121°05'1212.0
2014-Nov-12 04:33N 31°52' E 120°53'7 7.0
2014-Nov-12 03:33N 31°59' E 120°51'0 0.0
2014-Nov-12 02:25N 31°59' E 120°51'0 0.0
2014-Nov-12 01:31N 31°59' E 120°51'0 0.0
2014-Nov-12 00:31N 31°59' E 120°51'0 0.0
2014-Nov-11 23:31N 31°59' E 120°51'0 0.0
2014-Nov-11 22:31N 31°59' E 120°51'0 0.0
2014-Nov-11 21:31N 31°59' E 120°51'0 0.0
2014-Nov-11 20:31N 31°59' E 120°51'0 0.0
2014-Nov-11 19:25N 31°59' E 120°51'0 0.0
2014-Nov-11 18:31N 31°59' E 120°51'0 0.0
2014-Nov-11 17:31N 31°59' E 120°51'0 0.0
2014-Nov-11 16:07N 31°59' E 120°51'0 0.0
2014-Nov-11 15:25N 31°59' E 120°51'0 0.0
2014-Nov-11 14:19N 31°59' E 120°51'0 0.0
2014-Nov-11 13:28N 31°59' E 120°51'0 0.0
2014-Nov-11 12:31N 31°59' E 120°51'0 0.0
2014-Nov-11 11:16N 31°59' E 120°51'0 0.0
2014-Nov-11 10:19N 31°59' E 120°51'0 0.0
2014-Nov-11 08:04N 31°59' E 120°51'0 0.0
2014-Nov-11 07:22N 31°59' E 120°51'0 0.0
2014-Nov-11 06:25N 31°59' E 120°51'0 0.0
2014-Nov-11 05:31N 31°59' E 120°51'0 0.0
2014-Nov-11 04:19N 31°59' E 120°51'0 0.0
2014-Nov-11 03:25N 31°59' E 120°51'0 0.0
2014-Nov-11 02:25N 31°59' E 120°51'0 0.0
2014-Nov-11 01:25N 31°59' E 120°51'0 0.0
2014-Nov-11 00:31N 31°59' E 120°51'0 0.0
2014-Nov-10 23:25N 31°59' E 120°51'0 0.0
2014-Nov-10 22:31N 31°59' E 120°51'0 0.0
2014-Nov-10 21:22N 31°59' E 120°51'0 0.0
2014-Nov-10 20:31N 31°59' E 120°51'0 0.0
2014-Nov-10 19:31N 31°59' E 120°51'0 0.0
2014-Nov-10 18:31N 31°59' E 120°51'0 0.0
2014-Nov-10 17:25N 31°59' E 120°51'0 0.0
2014-Nov-10 16:25N 31°59' E 120°51'0 0.0
2014-Nov-10 15:31N 31°59' E 120°51'0 0.0
2014-Nov-10 14:31N 31°59' E 120°51'0 0.0
2014-Nov-10 13:25N 31°59' E 120°51'0 0.0
2014-Nov-10 12:25N 31°59' E 120°51'0 0.0
2014-Nov-10 11:25N 31°59' E 120°51'0 0.0
2014-Nov-10 10:25N 31°59' E 120°51'0 0.0
2014-Nov-10 09:31N 31°59' E 120°51'0 0.0
2014-Nov-10 08:31N 31°59' E 120°51'0 0.0
2014-Nov-10 07:28N 31°59' E 120°51'0 0.0
2014-Nov-10 06:31N 31°59' E 120°51'0 0.0
2014-Nov-10 05:31N 31°59' E 120°51'0 0.0
2014-Nov-10 04:19N 31°59' E 120°51'0 0.0
2014-Nov-10 03:31N 31°59' E 120°51'1 1.0
2014-Nov-10 02:33N 31°58' E 120°51'4 3.5
2014-Nov-10 01:33N 31°55' E 120°53'0 0.0
2014-Nov-10 00:30N 31°55' E 120°53'0 0.0
2014-Nov-09 23:33N 31°55' E 120°53'0 0.0
2014-Nov-09 22:33N 31°55' E 120°53'0 0.1
2014-Nov-09 21:33N 31°55' E 120°53'0 0.2
2014-Nov-09 20:06N 31°55' E 120°53'0 0.1
2014-Nov-09 19:27N 31°55' E 120°53'0 0.2
2014-Nov-09 18:30N 31°55' E 120°53'0 0.1
2014-Nov-09 17:33N 31°55' E 120°53'0 0.0
2014-Nov-09 16:33N 31°55' E 120°53'0 0.0
2014-Nov-09 15:33N 31°55' E 120°53'0 0.0
2014-Nov-09 14:33N 31°55' E 120°53'0 0.0
2014-Nov-09 13:33N 31°55' E 120°53'0 0.0
2014-Nov-09 12:33N 31°55' E 120°53'0 0.1
2014-Nov-09 11:21N 31°55' E 120°53'0 0.1
2014-Nov-09 10:33N 31°55' E 120°53'0 0.2
2014-Nov-09 09:27N 31°55' E 120°53'1 1.3
2014-Nov-09 08:33N 31°54' E 120°53'1010.4
2014-Nov-09 07:33N 31°46' E 121°02'1514.8
2014-Nov-09 06:31N 31°37' E 121°16'1212.7
2014-Nov-09 05:32N 31°29' E 121°27'1010.4
2014-Nov-09 04:33N 31°23' E 121°36'1111.2
2014-Nov-09 03:34N 31°18' E 121°48'  
2014-Nov-03 08:06N 29°52' E 122°51'7 9.5
2014-Nov-03 07:25N 29°48' E 122°45'8 9.2
2014-Nov-03 06:33N 29°43' E 122°38'9 8.7
2014-Nov-03 05:33N 29°42' E 122°28'1212.1
2014-Nov-03 04:32N 29°47' E 122°15'1212.4
2014-Nov-03 03:34N 29°55' E 122°05'1010.4
2014-Nov-03 02:33N 29°57' E 121°53'0 0.0
2014-Nov-03 01:31N 29°57' E 121°53'0 0.0
2014-Nov-03 00:31N 29°57' E 121°53'1 1.1
2014-Nov-02 23:33N 29°56' E 121°53'0 0.0
2014-Nov-02 22:08N 29°56' E 121°53'0 0.0
2014-Nov-02 21:32N 29°56' E 121°53'0 0.0
2014-Nov-02 20:26N 29°56' E 121°53'0 0.0
2014-Nov-02 18:20N 29°56' E 121°53'0 0.0
2014-Nov-02 17:14N 29°56' E 121°53'0 0.0
2014-Nov-02 16:32N 29°56' E 121°53'0 0.0
2014-Nov-02 15:32N 29°56' E 121°53'0 0.0
2014-Nov-02 13:14N 29°56' E 121°53'0 0.0
2014-Nov-02 12:26N 29°56' E 121°53'0 0.0
2014-Nov-02 11:08N 29°56' E 121°53'  
Track history (hours):
 
Tides and Currents Weather Stations Pressure Air Temp Water Temp Dewpoint Dewpoint Depression Visibility Wind Speed Wind Dir Waves Ship Positions

Cape Providence

Last reported at 2014-Nov-12 09:32 UTC. Time now 2014-Nov-26 07:41 UTC.
Position N 31°21' E 121°40'.
Warning: this ship's position is 13 days out of date.

Length 292 m; draft 9.1 m.

Type: Cargo ship. MMSI: 372773000.

Date/timePositionNaut miles runAvg speedWind from/ knotsBaromVisibWave heightAir tempDewpointWater temp
2014-Nov-12 09:32N 31°21' E 121°40'10 9.9
2014-Nov-12 08:33N 31°25' E 121°30'6 5.6
2014-Nov-12 07:33N 31°29' E 121°26'1211.6
2014-Nov-12 06:33N 31°37' E 121°16'1212.1
2014-Nov-12 05:33N 31°45' E 121°05'1212.0
2014-Nov-12 04:33N 31°52' E 120°53'7 7.0
2014-Nov-12 03:33N 31°59' E 120°51'0 0.0
2014-Nov-12 02:25N 31°59' E 120°51'0 0.0
2014-Nov-12 01:31N 31°59' E 120°51'0 0.0
2014-Nov-12 00:31N 31°59' E 120°51'0 0.0
2014-Nov-11 23:31N 31°59' E 120°51'0 0.0
2014-Nov-11 22:31N 31°59' E 120°51'0 0.0
2014-Nov-11 21:31N 31°59' E 120°51'0 0.0
2014-Nov-11 20:31N 31°59' E 120°51'0 0.0
2014-Nov-11 19:25N 31°59' E 120°51'0 0.0
2014-Nov-11 18:31N 31°59' E 120°51'0 0.0
2014-Nov-11 17:31N 31°59' E 120°51'0 0.0
2014-Nov-11 16:07N 31°59' E 120°51'0 0.0
2014-Nov-11 15:25N 31°59' E 120°51'0 0.0
2014-Nov-11 14:19N 31°59' E 120°51'0 0.0
2014-Nov-11 13:28N 31°59' E 120°51'0 0.0
2014-Nov-11 12:31N 31°59' E 120°51'0 0.0
2014-Nov-11 11:16N 31°59' E 120°51'0 0.0
2014-Nov-11 10:19N 31°59' E 120°51'0 0.0
2014-Nov-11 08:04N 31°59' E 120°51'0 0.0
2014-Nov-11 07:22N 31°59' E 120°51'0 0.0
2014-Nov-11 06:25N 31°59' E 120°51'0 0.0
2014-Nov-11 05:31N 31°59' E 120°51'0 0.0
2014-Nov-11 04:19N 31°59' E 120°51'0 0.0
2014-Nov-11 03:25N 31°59' E 120°51'0 0.0
2014-Nov-11 02:25N 31°59' E 120°51'0 0.0
2014-Nov-11 01:25N 31°59' E 120°51'0 0.0
2014-Nov-11 00:31N 31°59' E 120°51'0 0.0
2014-Nov-10 23:25N 31°59' E 120°51'0 0.0
2014-Nov-10 22:31N 31°59' E 120°51'0 0.0
2014-Nov-10 21:22N 31°59' E 120°51'0 0.0
2014-Nov-10 20:31N 31°59' E 120°51'0 0.0
2014-Nov-10 19:31N 31°59' E 120°51'0 0.0
2014-Nov-10 18:31N 31°59' E 120°51'0 0.0
2014-Nov-10 17:25N 31°59' E 120°51'0 0.0
2014-Nov-10 16:25N 31°59' E 120°51'0 0.0
2014-Nov-10 15:31N 31°59' E 120°51'0 0.0
2014-Nov-10 14:31N 31°59' E 120°51'0 0.0
2014-Nov-10 13:25N 31°59' E 120°51'0 0.0
2014-Nov-10 12:25N 31°59' E 120°51'0 0.0
2014-Nov-10 11:25N 31°59' E 120°51'0 0.0
2014-Nov-10 10:25N 31°59' E 120°51'0 0.0
2014-Nov-10 09:31N 31°59' E 120°51'0 0.0
2014-Nov-10 08:31N 31°59' E 120°51'0 0.0
2014-Nov-10 07:28N 31°59' E 120°51'0 0.0
2014-Nov-10 06:31N 31°59' E 120°51'0 0.0
2014-Nov-10 05:31N 31°59' E 120°51'0 0.0
2014-Nov-10 04:19N 31°59' E 120°51'0 0.0
2014-Nov-10 03:31N 31°59' E 120°51'1 1.0
2014-Nov-10 02:33N 31°58' E 120°51'4 3.5
2014-Nov-10 01:33N 31°55' E 120°53'0 0.0
2014-Nov-10 00:30N 31°55' E 120°53'0 0.0
2014-Nov-09 23:33N 31°55' E 120°53'0 0.0
2014-Nov-09 22:33N 31°55' E 120°53'0 0.1
2014-Nov-09 21:33N 31°55' E 120°53'0 0.2
2014-Nov-09 20:06N 31°55' E 120°53'0 0.1
2014-Nov-09 19:27N 31°55' E 120°53'0 0.2
2014-Nov-09 18:30N 31°55' E 120°53'0 0.1
2014-Nov-09 17:33N 31°55' E 120°53'0 0.0
2014-Nov-09 16:33N 31°55' E 120°53'0 0.0
2014-Nov-09 15:33N 31°55' E 120°53'0 0.0
2014-Nov-09 14:33N 31°55' E 120°53'0 0.0
2014-Nov-09 13:33N 31°55' E 120°53'0 0.0
2014-Nov-09 12:33N 31°55' E 120°53'0 0.1
2014-Nov-09 11:21N 31°55' E 120°53'0 0.1
2014-Nov-09 10:33N 31°55' E 120°53'0 0.2
2014-Nov-09 09:27N 31°55' E 120°53'1 1.3
2014-Nov-09 08:33N 31°54' E 120°53'1010.4
2014-Nov-09 07:33N 31°46' E 121°02'1514.8
2014-Nov-09 06:31N 31°37' E 121°16'1212.7
2014-Nov-09 05:32N 31°29' E 121°27'1010.4
2014-Nov-09 04:33N 31°23' E 121°36'1111.2
2014-Nov-09 03:34N 31°18' E 121°48'  
2014-Nov-03 08:06N 29°52' E 122°51'7 9.5
2014-Nov-03 07:25N 29°48' E 122°45'8 9.2
2014-Nov-03 06:33N 29°43' E 122°38'9 8.7
2014-Nov-03 05:33N 29°42' E 122°28'1212.1
2014-Nov-03 04:32N 29°47' E 122°15'1212.4
2014-Nov-03 03:34N 29°55' E 122°05'1010.4
2014-Nov-03 02:33N 29°57' E 121°53'0 0.0
2014-Nov-03 01:31N 29°57' E 121°53'0 0.0
2014-Nov-03 00:31N 29°57' E 121°53'1 1.1
2014-Nov-02 23:33N 29°56' E 121°53'0 0.0
2014-Nov-02 22:08N 29°56' E 121°53'0 0.0
2014-Nov-02 21:32N 29°56' E 121°53'0 0.0
2014-Nov-02 20:26N 29°56' E 121°53'0 0.0
2014-Nov-02 18:20N 29°56' E 121°53'0 0.0
2014-Nov-02 17:14N 29°56' E 121°53'0 0.0
2014-Nov-02 16:32N 29°56' E 121°53'0 0.0
2014-Nov-02 15:32N 29°56' E 121°53'0 0.0
2014-Nov-02 13:14N 29°56' E 121°53'0 0.0
2014-Nov-02 12:26N 29°56' E 121°53'0 0.0
2014-Nov-02 11:08N 29°56' E 121°53'  

Dump ship's entire track history